CXA8517 ZSAM-ZSPD
Flight info
| Callsign | CXA8517 |
|---|---|
| Flight time | N/A |
| Altitude | 33100 |
| Route | DOVPU9Z DOVPU W643 FOC W644 ANLUD B221 SHZ W58 XSY |
| Aircraft | B738/M-SDE2E3FGHIRWXY/LB1 |
Departure
| Time | 2026-05-05 08:06 |
|---|---|
| Airport | Xiamen Gaoqi International Airport (ZSAM) |
Arrival
| Time | N/A |
|---|---|
| Airport | Shanghai Pudong International Airport (ZSPD) |
| Time | Latitude | Longitude | Altitude | Speed | Heading |
|---|---|---|---|---|---|
| 2026-05-05 07:34 | 24.54605 | 118.13706 | 41 ft | 0 kts | 52° |
| 2026-05-05 07:55 | 24.54603 | 118.13703 | 40 ft | 2 kts | 52° |
| 2026-05-05 07:55 | 24.54596 | 118.13694 | 41 ft | 0 kts | 52° |
| 2026-05-05 07:56 | 24.54587 | 118.13683 | 41 ft | 2 kts | 31° |
| 2026-05-05 07:56 | 24.54573 | 118.13676 | 41 ft | 2 kts | 11° |
| 2026-05-05 07:56 | 24.54558 | 118.13676 | 41 ft | 2 kts | 348° |
| 2026-05-05 07:56 | 24.54543 | 118.13682 | 41 ft | 1 kts | 327° |
| 2026-05-05 07:57 | 24.54538 | 118.13686 | 41 ft | 1 kts | 318° |
| 2026-05-05 07:57 | 24.54536 | 118.13689 | 41 ft | 0 kts | 320° |
| 2026-05-05 07:59 | 24.54549 | 118.13676 | 41 ft | 6 kts | 320° |
| 2026-05-05 07:59 | 24.54601 | 118.13632 | 42 ft | 12 kts | 324° |
| 2026-05-05 08:00 | 24.54671 | 118.13550 | 43 ft | 14 kts | 272° |
| 2026-05-05 08:00 | 24.54621 | 118.13457 | 45 ft | 13 kts | 231° |
| 2026-05-05 08:00 | 24.54562 | 118.13378 | 47 ft | 13 kts | 231° |
| 2026-05-05 08:00 | 24.54506 | 118.13300 | 48 ft | 13 kts | 232° |
| 2026-05-05 08:01 | 24.54439 | 118.13205 | 48 ft | 12 kts | 237° |
| 2026-05-05 08:01 | 24.54463 | 118.13137 | 48 ft | 10 kts | 291° |
| 2026-05-05 08:01 | 24.54429 | 118.13077 | 49 ft | 9 kts | 229° |
| 2026-05-05 08:01 | 24.54364 | 118.12985 | 50 ft | 22 kts | 232° |
| 2026-05-05 08:02 | 24.54259 | 118.12838 | 52 ft | 24 kts | 232° |
| 2026-05-05 08:02 | 24.54157 | 118.12698 | 54 ft | 23 kts | 230° |
| 2026-05-05 08:02 | 24.54059 | 118.12559 | 58 ft | 21 kts | 237° |
| 2026-05-05 08:02 | 24.53971 | 118.12432 | 63 ft | 19 kts | 232° |
| 2026-05-05 08:03 | 24.53889 | 118.12318 | 66 ft | 18 kts | 232° |
| 2026-05-05 08:03 | 24.53812 | 118.12208 | 68 ft | 18 kts | 232° |
| 2026-05-05 08:03 | 24.53735 | 118.12101 | 70 ft | 17 kts | 231° |
| 2026-05-05 08:03 | 24.53665 | 118.12003 | 74 ft | 15 kts | 231° |
| 2026-05-05 08:04 | 24.53599 | 118.11911 | 75 ft | 15 kts | 233° |
| 2026-05-05 08:04 | 24.53525 | 118.11804 | 73 ft | 19 kts | 232° |
| 2026-05-05 08:04 | 24.53441 | 118.11687 | 71 ft | 14 kts | 232° |
| 2026-05-05 08:04 | 24.53404 | 118.11578 | 69 ft | 16 kts | 280° |
| 2026-05-05 08:05 | 24.53426 | 118.11504 | 68 ft | 10 kts | 300° |
| 2026-05-05 08:05 | 24.53488 | 118.11477 | 68 ft | 11 kts | 34° |
| 2026-05-05 08:05 | 24.53514 | 118.11507 | 68 ft | 0 kts | 52° |
| 2026-05-05 08:05 | 24.53556 | 118.11565 | 69 ft | 39 kts | 52° |
| 2026-05-05 08:06 | 24.53886 | 118.12028 | 70 ft | 111 kts | 52° |
| 2026-05-05 08:06 | 24.54492 | 118.12880 | 152 ft | 160 kts | 53° |
| 2026-05-05 08:06 | 24.55108 | 118.13789 | 986 ft | 148 kts | 54° |
| 2026-05-05 08:06 | 24.55731 | 118.14722 | 1574 ft | 159 kts | 52° |
| 2026-05-05 08:07 | 24.56427 | 118.15682 | 2112 ft | 167 kts | 50° |
| 2026-05-05 08:07 | 24.57204 | 118.16676 | 2576 ft | 179 kts | 50° |
| 2026-05-05 08:07 | 24.58027 | 118.17797 | 2985 ft | 196 kts | 52° |
| 2026-05-05 08:07 | 24.58920 | 118.19028 | 3372 ft | 216 kts | 52° |
| 2026-05-05 08:08 | 24.59356 | 118.19632 | 3549 ft | 221 kts | 53° |